Hillside, New York
Current Conditions -  °F | °C
As of 7:51 AM on Wednesday 22 Oct 2014 (Local Time) from KLGA Reporting Station
Light Rain Light Rain  
Wind Chill: 55°   Ceiling: 1500
Heat Index: 55°   Visibility: 10mi
Dew Point: 52°   Wind: 16mph
Humidity: 89%   Direction: 20°NNE
Pressure: 29.92"   Gusts: NA
Location:  40.8683°N, 73.8469°W
Report Text: KLGA 221151Z 02014KT 10SM -RA SCT011 OVC015 13/11 A2992 RMK AO2 SLP130 P0004 60035 70035 T01280111 10150 20128 51011
Loading
Personal Weather Stations






























Interactive Weather Map
Tropical Storm Tracking
New forecast layout! Learn more

10-Day Weather Forecast

Advertisements
Track Severe Weather on mobile